»·PEaware :: N288AW KMRY-KLAX

N288AW :: KMRY-KLAX

FLIGHT INFORMATION

Flight Status: Arrived
Operator: Privately registered:
United States
More flights under this callsign
Pilot: Daniel B. (28719)
Aircraft: CESSNA 172 SKYHAWK
(C172)
More flights by this aircraft type
Origin: KMRY Monterey Peninsula
United States
Destination: KLAX Los Angeles Intl
United States
More flights between these airports :: More routes between these airports
Route: MRY5 SHOEY SNS AVE EHF KIMMO3
File this flight plan on PilotEdge
Remarks:
Altitude:
(Current/Filed)
11,000ft
Speed:
(Current/Filed)
115kts
Departed: 04-Jan-21 07:14 PM
Arrived: 04-Jan-21 09:23 PM
Distance/Time
Traveled:
232nm/2:09
Distance/Time
To Go:
Arrived

Flight Plot

Page will automatically refresh every two minutes.

Flight plan parsing failed; only flown route is shown


Map Options




Map Legend


Flown Route
Filed Route
Departure Airport
Arrival Airport
Navaid (VOR, NDB)
Fix

Horizontal Profiles

Position Reports

Time Latitude Longitude Heading Altitude Ground
Speed
04-Jan-21 18:30 36.586369 -121.847221 232 194ft 0kts
04-Jan-21 18:31 36.586369 -121.847221 232 194ft 0kts
04-Jan-21 18:32 36.586369 -121.847221 232 194ft 0kts
04-Jan-21 18:33 36.586369 -121.847221 232 194ft 0kts
04-Jan-21 18:34 36.586369 -121.847221 232 194ft 0kts
04-Jan-21 18:35 36.586369 -121.847221 232 194ft 0kts
04-Jan-21 18:36 36.586369 -121.847221 232 194ft 0kts
04-Jan-21 18:37 36.586369 -121.847221 232 194ft 0kts
04-Jan-21 18:38 36.586369 -121.847221 232 194ft 0kts
04-Jan-21 18:39 36.586369 -121.847221 232 194ft 0kts
04-Jan-21 18:40 36.586369 -121.847221 232 194ft 0kts
04-Jan-21 18:41 36.586369 -121.847221 232 194ft 0kts
04-Jan-21 18:42 36.586369 -121.847221 232 194ft 0kts
04-Jan-21 18:43 36.586369 -121.847221 233 194ft 0kts
04-Jan-21 18:44 36.586369 -121.847221 233 194ft 0kts
04-Jan-21 18:45 36.586369 -121.847221 233 194ft 0kts
04-Jan-21 18:46 36.586369 -121.847221 233 194ft 0kts
04-Jan-21 18:47 36.586369 -121.847221 233 194ft 0kts
04-Jan-21 18:48 36.586369 -121.847221 233 194ft 0kts
04-Jan-21 18:49 36.586369 -121.847221 233 194ft 0kts
04-Jan-21 18:50 36.586369 -121.847221 233 194ft 0kts
04-Jan-21 18:51 36.586369 -121.847221 233 194ft 0kts
04-Jan-21 18:52 36.586369 -121.847221 233 194ft 0kts
04-Jan-21 18:53 36.586368 -121.847221 233 194ft 0kts
04-Jan-21 18:54 36.586369 -121.847221 233 194ft 0kts
04-Jan-21 18:55 36.586369 -121.847221 233 194ft 0kts
04-Jan-21 18:56 36.586369 -121.847221 233 194ft 0kts
04-Jan-21 18:57 36.586369 -121.847221 233 194ft 0kts
04-Jan-21 18:58 36.586369 -121.847221 233 194ft 0kts
04-Jan-21 18:59 36.586369 -121.847221 233 194ft 0kts
04-Jan-21 19:00 36.586369 -121.847221 233 194ft 0kts
04-Jan-21 19:01 36.586368 -121.847221 233 194ft 0kts
04-Jan-21 19:02 36.586365 -121.847227 233 194ft 0kts
04-Jan-21 19:03 36.586365 -121.847227 233 194ft 0kts
04-Jan-21 19:04 36.586511 -121.847096 55 194ft 3kts
04-Jan-21 19:05 36.588227 -121.850561 292 175ft 22kts
04-Jan-21 19:06 36.589737 -121.855589 288 158ft 12kts
04-Jan-21 19:07 36.589972 -121.856080 346 156ft 0kts
04-Jan-21 19:08 36.589972 -121.856080 346 156ft 0kts
04-Jan-21 19:09 36.589972 -121.856080 346 156ft 0kts
04-Jan-21 19:10 36.589972 -121.856080 346 156ft 0kts
04-Jan-21 19:11 36.589972 -121.856080 346 156ft 0kts
04-Jan-21 19:12 36.590571 -121.854953 112 155ft 27kts
04-Jan-21 19:14 36.596039 -121.837462 345 855ft 80kts
04-Jan-21 19:15 36.618520 -121.842612 339 1824ft 82kts
04-Jan-21 19:16 36.641269 -121.844188 348 2761ft 82kts
04-Jan-21 19:17 36.664273 -121.845050 349 3621ft 84kts
04-Jan-21 19:18 36.687436 -121.844971 329 4418ft 79kts
04-Jan-21 19:19 36.696189 -121.865531 285 5183ft 68kts
04-Jan-21 19:20 36.701963 -121.887646 285 5905ft 66kts
04-Jan-21 19:21 36.707358 -121.909546 281 6582ft 65kts
04-Jan-21 19:22 36.712108 -121.931063 282 7306ft 65kts
04-Jan-21 19:23 36.718959 -121.950850 330 7976ft 81kts
04-Jan-21 19:24 36.728432 -121.918069 88 8634ft 125kts
04-Jan-21 19:25 36.727005 -121.873567 89 9217ft 130kts
04-Jan-21 19:26 36.718501 -121.829042 108 9768ft 134kts
04-Jan-21 19:27 36.707097 -121.784252 108 10302ft 137kts
04-Jan-21 19:28 36.696307 -121.738352 106 10798ft 140kts
04-Jan-21 19:28 36.686279 -121.696803 106 10939ft 160kts
04-Jan-21 19:30 36.670953 -121.633546 103 10915ft 158kts
04-Jan-21 19:31 36.657488 -121.583371 129 10990ft 156kts
04-Jan-21 19:31 36.634716 -121.547929 134 10954ft 157kts
04-Jan-21 19:32 36.606647 -121.506379 136 10956ft 156kts
04-Jan-21 19:33 36.578718 -121.465078 134 10968ft 156kts
04-Jan-21 19:34 36.551579 -121.422489 133 10967ft 157kts
04-Jan-21 19:35 36.524673 -121.379674 134 10966ft 157kts
04-Jan-21 19:36 36.497630 -121.336829 136 10952ft 156kts
04-Jan-21 19:37 36.470343 -121.294647 130 10931ft 156kts
04-Jan-21 19:38 36.445164 -121.250847 130 10938ft 155kts
04-Jan-21 19:39 36.418592 -121.208882 133 10939ft 155kts
04-Jan-21 19:40 36.391789 -121.166908 137 10948ft 154kts
04-Jan-21 19:41 36.365082 -121.124619 130 10964ft 156kts
04-Jan-21 19:42 36.339030 -121.081735 133 10990ft 155kts
04-Jan-21 19:43 36.312592 -121.039192 133 11002ft 157kts
04-Jan-21 19:44 36.286057 -120.996121 133 10997ft 158kts
04-Jan-21 19:45 36.259384 -120.951966 133 10965ft 159kts
04-Jan-21 19:46 36.232602 -120.908224 132 10954ft 159kts
04-Jan-21 19:47 36.205206 -120.865428 135 10939ft 158kts
04-Jan-21 19:48 36.176871 -120.823741 140 10937ft 157kts
04-Jan-21 19:49 36.149323 -120.784152 131 11313ft 151kts
04-Jan-21 19:50 36.124903 -120.743268 127 11756ft 149kts
04-Jan-21 19:51 36.101855 -120.700708 127 12187ft 148kts
04-Jan-21 19:52 36.077829 -120.659453 128 12600ft 149kts
04-Jan-21 19:53 36.052920 -120.618162 131 12951ft 152kts
04-Jan-21 19:54 36.024861 -120.575960 133 12988ft 162kts
04-Jan-21 19:55 35.995289 -120.531032 132 12940ft 172kts
04-Jan-21 19:56 35.965095 -120.485622 133 12977ft 171kts
04-Jan-21 19:57 35.936083 -120.438198 129 12965ft 172kts
04-Jan-21 19:58 35.906906 -120.390918 131 12952ft 173kts
04-Jan-21 19:59 35.877296 -120.343902 133 12933ft 171kts
04-Jan-21 20:00 35.846760 -120.299724 133 12943ft 168kts
04-Jan-21 20:01 35.816590 -120.256058 130 12972ft 168kts
04-Jan-21 20:02 35.787974 -120.210914 134 13019ft 167kts
04-Jan-21 20:03 35.758884 -120.166034 130 13043ft 169kts
04-Jan-21 20:04 35.730526 -120.119153 128 13007ft 171kts
04-Jan-21 20:05 35.701541 -120.072904 129 12989ft 171kts
04-Jan-21 20:06 35.673992 -120.025344 131 13002ft 169kts
04-Jan-21 20:07 35.646566 -119.978857 103 12982ft 171kts
04-Jan-21 20:08 35.636953 -119.922304 95 13004ft 168kts
04-Jan-21 20:09 35.628439 -119.865721 95 13029ft 168kts
04-Jan-21 20:10 35.618167 -119.809161 97 13026ft 170kts
04-Jan-21 20:11 35.608730 -119.752367 97 13043ft 169kts
04-Jan-21 20:12 35.599201 -119.695670 96 13052ft 169kts
04-Jan-21 20:13 35.589043 -119.638723 101 13051ft 171kts
04-Jan-21 20:14 35.576123 -119.581922 100 12990ft 172kts
04-Jan-21 20:15 35.562334 -119.525552 97 12976ft 171kts
04-Jan-21 20:16 35.550471 -119.468894 102 12977ft 172kts
04-Jan-21 20:17 35.540668 -119.412109 94 13009ft 169kts
04-Jan-21 20:18 35.532561 -119.355139 92 13041ft 169kts
04-Jan-21 20:19 35.524746 -119.298191 92 13025ft 169kts
04-Jan-21 20:20 35.517047 -119.241438 101 13021ft 170kts
04-Jan-21 20:21 35.502737 -119.186028 105 13023ft 171kts
04-Jan-21 20:22 35.487602 -119.130978 101 13014ft 172kts
04-Jan-21 20:23 35.463795 -119.082310 147 12956ft 168kts
04-Jan-21 20:24 35.428836 -119.044740 143 12969ft 168kts
04-Jan-21 20:25 35.394545 -119.004112 139 12578ft 175kts
04-Jan-21 20:26 35.359570 -118.960462 141 11932ft 180kts
04-Jan-21 20:27 35.325114 -118.915926 136 11357ft 181kts
04-Jan-21 20:28 35.290819 -118.871746 141 10936ft 170kts
04-Jan-21 20:29 35.257355 -118.834521 142 10989ft 158kts
04-Jan-21 20:30 35.224225 -118.798162 138 10960ft 161kts
04-Jan-21 20:31 35.191707 -118.760636 152 10960ft 158kts
04-Jan-21 20:32 35.152794 -118.742311 178 10995ft 147kts
04-Jan-21 20:33 35.113567 -118.730552 178 11026ft 146kts
04-Jan-21 20:34 35.074645 -118.715289 174 11052ft 148kts
04-Jan-21 20:35 35.036136 -118.699565 171 11094ft 148kts
04-Jan-21 20:36 34.997380 -118.685102 177 11065ft 145kts
04-Jan-21 20:37 34.958643 -118.671572 175 11046ft 144kts
04-Jan-21 20:38 34.920560 -118.657105 172 11030ft 142kts
04-Jan-21 20:39 34.882904 -118.646850 181 11022ft 135kts
04-Jan-21 20:40 34.846213 -118.637145 174 11045ft 135kts
04-Jan-21 20:41 34.809944 -118.625681 172 11051ft 135kts
04-Jan-21 20:42 34.773540 -118.613886 170 11052ft 136kts
04-Jan-21 20:43 34.737669 -118.599309 171 10984ft 130kts
04-Jan-21 20:44 34.704450 -118.587442 174 10411ft 122kts
04-Jan-21 20:45 34.671670 -118.577221 167 9837ft 123kts
04-Jan-21 20:46 34.640208 -118.560114 156 9290ft 124kts
04-Jan-21 20:47 34.610317 -118.539567 155 8752ft 123kts
04-Jan-21 20:48 34.579868 -118.521709 159 8243ft 120kts
04-Jan-21 20:49 34.548982 -118.504765 158 8029ft 132kts
04-Jan-21 20:50 34.513759 -118.484204 156 7976ft 141kts
04-Jan-21 20:51 34.478931 -118.463945 153 7992ft 136kts
04-Jan-21 20:53 34.445660 -118.442044 150 8014ft 137kts
04-Jan-21 20:54 34.412324 -118.419375 153 8019ft 138kts
04-Jan-21 20:55 34.380059 -118.400776 156 7525ft 121kts
04-Jan-21 20:56 34.350272 -118.385917 159 6990ft 111kts
04-Jan-21 20:57 34.317061 -118.369239 149 7045ft 138kts
04-Jan-21 20:58 34.282557 -118.348342 146 6969ft 137kts
04-Jan-21 20:59 34.249929 -118.327648 146 6968ft 135kts
04-Jan-21 21:00 34.220446 -118.307365 144 6965ft 133kts
04-Jan-21 21:01 34.192600 -118.288354 150 6951ft 135kts
04-Jan-21 21:02 34.165269 -118.274341 155 6954ft 136kts
04-Jan-21 21:03 34.140296 -118.261266 151 6947ft 136kts
04-Jan-21 21:04 34.116744 -118.249134 155 6946ft 137kts
04-Jan-21 21:05 34.093960 -118.239081 158 6805ft 129kts
04-Jan-21 21:06 34.073120 -118.227914 152 6331ft 124kts
04-Jan-21 21:07 34.053031 -118.217042 152 5904ft 122kts
04-Jan-21 21:07 34.037598 -118.208179 157 5580ft 121kts
04-Jan-21 21:09 34.016200 -118.212859 205 5010ft 109kts
04-Jan-21 21:10 34.000308 -118.219927 212 4518ft 108kts
04-Jan-21 21:10 33.987586 -118.225239 202 4179ft 103kts
04-Jan-21 21:12 33.970720 -118.231034 202 3634ft 97kts
04-Jan-21 21:12 33.959732 -118.235104 204 3318ft 93kts
04-Jan-21 21:13 33.947473 -118.241994 250 2906ft 82kts
04-Jan-21 21:14 33.950259 -118.256104 302 2442ft 82kts
04-Jan-21 21:15 33.950211 -118.270863 257 2051ft 82kts
04-Jan-21 21:16 33.947076 -118.286459 264 1708ft 76kts
04-Jan-21 21:17 33.945654 -118.302401 264 1418ft 81kts
04-Jan-21 21:18 33.943541 -118.320040 268 1182ft 86kts
04-Jan-21 21:19 33.941557 -118.341372 265 840ft 95kts
04-Jan-21 21:20 33.939240 -118.364023 264 465ft 74kts
04-Jan-21 21:21 33.937580 -118.380362 261 176ft 59kts
04-Jan-21 21:22 33.936439 -118.390694 216 101ft 9kts
04-Jan-21 21:23 33.935677 -118.390996 184 102ft 0kts
04-Jan-21 21:24 33.935277 -118.391322 243 102ft 15kts
04-Jan-21 21:25 33.934710 -118.396646 263 106ft 22kts
04-Jan-21 21:26 33.933442 -118.398836 242 110ft 12kts
04-Jan-21 21:27 33.932808 -118.398919 174 111ft 0kts

Navigation Log

Ident Type
Flight plan parsing failed, navigation log unavailable